Time;durP1;ratioP1;P1;durP2;ratioP2;P2;SDS_P1;SDS_P2;PMS_P1;PMS_P2;Temp;Humidity;BMP_temperature;BMP_pressure;BME280_temperature;BME280_humidity;BME280_pressure;Samples;Min_cycle;Max_cycle;Signal;HPM_P1;HPM_P2
2023/05/17 05:01:52;;;;;;;;;11.33;11.33;;;;;14.68;60.81;-4918.84;5561436;22;45564;-82
2023/05/17 05:04:17;;;;;;;;;16.67;9.33;;;;;14.56;60.82;-4918.53;4963079;28;45524;-82
2023/05/17 05:06:43;;;;;;;;;10.00;8.00;;;;;14.68;61.00;-4918.84;5007433;28;46006;-82
2023/05/17 05:09:08;;;;;;;;;9.33;9.33;;;;;14.49;60.90;-5252.53;5017003;28;45431;-82
2023/05/17 05:11:34;;;;;;;;;10.33;9.33;;;;;14.64;61.07;-5253.03;5016012;28;45499;-82
2023/05/17 05:13:59;;;;;;;;;14.33;8.67;;;;;14.68;61.14;-5587.44;4971246;28;45549;-83
2023/05/17 05:16:25;;;;;;;;;11.33;10.33;;;;;14.56;61.16;-5587.00;4964093;28;46292;-82
2023/05/17 05:18:50;;;;;;;;;7.33;7.33;;;;;14.67;61.26;-5921.66;4997208;28;45556;-82
2023/05/17 05:21:15;;;;;;;;;10.67;9.67;;;;;14.46;61.81;-6922.94;4986394;28;45436;-83
2023/05/17 05:23:40;;;;;;;;;11.33;8.33;;;;;14.66;61.23;-6589.97;5006927;28;45498;-82
2023/05/17 05:26:07;;;;;;;;;9.67;8.00;;;;;14.68;61.16;-6590.09;5014697;28;62212;-82
2023/05/17 05:28:32;;;;;;;;;11.33;8.33;;;;;14.53;61.21;-6589.28;4981748;28;45580;-82
2023/05/17 05:30:59;;;;;;;;;10.67;8.67;;;;;14.70;61.38;-6924.34;5008380;28;45445;-81
2023/05/17 05:33:24;;;;;;;;;7.67;7.67;;;;;14.70;61.22;-7258.53;4989542;28;45589;-84
2023/05/17 05:35:50;;;;;;;;;8.67;8.67;;;;;14.62;61.50;-6923.91;4984281;28;46091;-84
2023/05/17 05:38:15;;;;;;;;;8.33;8.33;;;;;14.51;61.62;-6923.25;4994573;28;45569;-83
2023/05/17 05:40:41;;;;;;;;;8.33;7.67;;;;;14.45;61.28;-6922.88;4967720;28;45434;-84
2023/05/17 05:43:06;;;;;;;;;9.00;9.00;;;;;14.74;61.26;-6924.59;5002994;28;45562;-84
2023/05/17 05:45:31;;;;;;;;;8.67;8.67;;;;;14.57;61.06;-6923.63;5005893;28;46989;-84
2023/05/17 05:47:57;;;;;;;;;7.33;6.00;;;;;14.60;61.17;-7257.88;5014567;28;45474;-83
2023/05/17 05:50:22;;;;;;;;;61.25;47.00;;;;;14.56;61.32;-7257.63;5015086;28;45669;-80
2023/05/17 05:52:48;;;;;;;;;19.33;19.33;;;;;14.81;61.40;-7259.22;5016664;28;45617;-83
2023/05/17 05:55:13;;;;;;;;;8.00;7.67;;;;;14.66;61.37;-7258.22;5015385;28;52454;-81
2023/05/17 05:57:38;;;;;;;;;7.00;6.67;;;;;14.77;61.10;-7593.13;5007499;28;45507;-83
2023/05/17 06:00:04;;;;;;;;;12.67;8.67;;;;;14.74;61.34;-7927.00;4988894;28;45682;-80
2023/05/17 06:02:30;;;;;;;;;12.67;9.33;;;;;14.64;61.42;-7926.25;5012314;28;45530;-81
2023/05/17 06:04:55;;;;;;;;;9.33;8.33;;;;;14.84;61.59;-8261.91;5012548;28;47214;-80
2023/05/17 06:07:20;;;;;;;;;9.00;7.00;;;;;14.88;61.20;-8262.25;5006182;28;45502;-81
2023/05/17 06:09:46;;;;;;;;;10.00;10.00;;;;;14.65;61.42;-8260.38;5010623;28;45530;-81
2023/05/17 06:12:11;;;;;;;;;14.00;11.67;;;;;14.74;61.16;-8261.13;5011172;28;45442;-81
2023/05/17 06:14:37;;;;;;;;;4.67;4.67;;;;;15.00;61.15;-8263.19;5013781;28;46938;-82
2023/05/17 06:17:03;;;;;;;;;11.33;8.67;;;;;15.03;61.10;-8263.44;5005667;28;45927;-82
2023/05/17 06:19:28;;;;;;;;;9.67;6.67;;;;;14.99;61.04;-8597.34;5007846;28;46088;-82
2023/05/17 06:21:53;;;;;;;;;11.67;7.00;;;;;15.08;61.19;-8598.03;5011883;28;45498;-82
2023/05/17 06:24:19;;;;;;;;;10.33;10.33;;;;;14.96;61.20;-8597.06;5015855;28;46165;-82
2023/05/17 06:26:45;;;;;;;;;7.33;6.33;;;;;15.14;61.47;-8598.63;5013843;28;45540;-82
2023/05/17 06:29:11;;;;;;;;;6.67;6.67;;;;;15.17;61.17;-8598.84;5005823;28;45423;-82
2023/05/17 06:31:36;;;;;;;;;11.33;9.00;;;;;15.02;60.69;-8597.56;5011611;28;45356;-82
2023/05/17 06:34:01;;;;;;;;;10.33;8.33;;;;;15.23;61.04;-8599.38;5010712;28;46370;-81
2023/05/17 06:36:27;;;;;;;;;7.00;7.00;;;;;15.06;61.00;-8597.91;5012396;28;45371;-80
2023/05/17 06:38:52;;;;;;;;;9.00;7.00;;;;;15.14;60.81;-8598.63;5015555;28;45450;-80
2023/05/17 06:41:18;;;;;;;;;5.67;5.00;;;;;15.15;60.80;-8598.72;5015788;28;45536;-80
2023/05/17 06:43:44;;;;;;;;;5.00;5.00;;;;;15.33;60.49;-8265.88;5014506;28;45366;-83
2023/05/17 06:46:09;;;;;;;;;7.33;6.67;;;;;15.38;60.22;-8266.25;5014837;28;45431;-80
2023/05/17 06:48:34;;;;;;;;;9.33;6.00;;;;;15.15;60.23;-7930.09;5014150;28;52829;-81
2023/05/17 06:51:00;;;;;;;;;5.67;4.67;;;;;15.24;59.96;-7930.75;4935342;28;45431;-81
2023/05/17 06:53:26;;;;;;;;;7.33;4.00;;;;;15.39;60.19;-7931.97;4934662;28;52039;-80
2023/05/17 06:55:51;;;;;;;;;7.00;4.33;;;;;15.35;60.00;-7931.66;4934716;28;45902;-81
2023/05/17 06:58:16;;;;;;;;;6.67;6.67;;;;;15.47;59.93;-7598.00;4934430;28;58814;-80
2023/05/17 07:00:42;;;;;;;;;6.67;6.33;;;;;15.48;59.93;-7598.13;4935050;28;45529;-81
2023/05/17 07:03:07;;;;;;;;;7.33;6.00;;;;;15.33;59.88;-7597.06;5005505;28;47204;-81
2023/05/17 07:05:32;;;;;;;;;7.00;5.67;;;;;15.38;60.11;-7597.41;5014489;28;45897;-82
2023/05/17 07:07:58;;;;;;;;;8.00;5.00;;;;;15.51;59.74;-7598.28;5012683;28;45521;-81
2023/05/17 07:10:23;;;;;;;;;8.00;6.33;;;;;15.43;59.66;-7597.75;5013873;28;45411;-81
2023/05/17 07:12:48;;;;;;;;;6.67;4.00;;;;;15.62;60.01;-7599.13;5015221;28;46145;-81
2023/05/17 07:15:14;;;;;;;;;9.33;6.33;;;;;15.46;59.62;-7597.94;5015324;28;57875;-81
2023/05/17 07:17:40;;;;;;;;;3.00;3.00;;;;;15.66;59.18;-7599.34;5008592;28;45503;-82
2023/05/17 07:20:06;;;;;;;;;4.00;4.00;;;;;15.46;59.93;-7597.97;4998232;28;45609;-82
2023/05/17 07:22:31;;;;;;;;;4.00;4.00;;;;;15.72;59.42;-7599.75;4995466;28;47213;-81
2023/05/17 07:24:56;;;;;;;;;4.00;1.33;;;;;15.66;59.19;-7599.34;4935375;28;45480;-82
2023/05/17 07:27:22;;;;;;;;;3.67;3.67;;;;;15.73;59.44;-7599.88;4985756;28;45481;-83
2023/05/17 07:29:47;;;;;;;;;3.33;3.33;;;;;15.68;59.49;-7264.88;4998072;28;45607;-82
2023/05/17 07:32:13;;;;;;;;;4.00;4.00;;;;;15.76;58.96;-7265.38;5013690;28;46298;-82
2023/05/17 07:34:38;;;;;;;;;6.00;5.00;;;;;15.84;59.12;-7265.91;5015387;28;45538;-82
2023/05/17 07:37:04;;;;;;;;;5.00;5.00;;;;;15.83;59.13;-7265.84;5012433;28;50142;-81
2023/05/17 07:39:29;;;;;;;;;8.33;4.00;;;;;15.91;58.98;-7266.34;5014662;28;45477;-80
2023/05/17 07:41:54;;;;;;;;;4.33;4.00;;;;;15.75;59.15;-7265.34;5015307;28;46302;-80
2023/05/17 07:44:22;;;;;;;;;4.00;4.00;;;;;15.95;59.40;-7266.63;5009578;28;45483;-81
2023/05/17 07:46:48;;;;;;;;;5.00;3.33;;;;;15.88;58.83;-7600.88;5009605;28;45518;-81
2023/05/17 07:49:13;;;;;;;;;4.67;3.00;;;;;15.85;58.85;-7265.97;5015968;28;45840;-80
2023/05/17 07:51:39;;;;;;;;;3.33;3.33;;;;;15.86;59.08;-7600.78;5015295;28;46353;-81
2023/05/17 07:54:05;;;;;;;;;7.33;4.00;;;;;15.83;58.82;-7265.88;5013196;28;45522;-81
2023/05/17 07:56:30;;;;;;;;;4.00;4.00;;;;;16.07;58.52;-7267.41;5015428;28;45352;-81
2023/05/17 07:58:56;;;;;;;;;6.00;4.33;;;;;16.01;58.44;-7267.00;5015654;28;45411;-81
2023/05/17 08:01:22;;;;;;;;;6.67;4.00;;;;;16.02;58.42;-7267.09;5010664;28;46222;-81
2023/05/17 08:03:48;;;;;;;;;4.00;4.00;;;;;15.95;58.36;-7266.59;4997393;28;45431;-81
2023/05/17 08:06:14;;;;;;;;;7.67;6.00;;;;;15.92;58.23;-6931.63;4934081;28;45363;-80
2023/05/17 08:08:40;;;;;;;;;4.67;4.00;;;;;16.24;58.53;-7268.47;4946101;28;45734;-81
2023/05/17 08:11:06;;;;;;;;;6.00;5.00;;;;;16.11;58.31;-7267.63;4955646;28;46117;-79
2023/05/17 08:13:31;;;;;;;;;6.00;5.00;;;;;16.30;58.44;-7603.81;5007480;28;45522;-81
2023/05/17 08:16:01;;;;;;;;;5.33;4.33;;;;;16.44;58.21;-6934.69;5001727;28;45677;-80
2023/05/17 08:18:26;;;;;;;;;5.00;5.00;;;;;16.47;58.09;-7269.97;5014597;28;45708;-79
2023/05/17 08:20:51;;;;;;;;;7.33;5.00;;;;;16.42;58.25;-7269.66;5012581;28;47262;-81
2023/05/17 08:23:17;;;;;;;;;6.00;5.00;;;;;16.51;58.47;-7270.22;5014107;28;45522;-81
2023/05/17 08:25:42;;;;;;;;;4.00;4.00;;;;;16.53;58.00;-7270.38;5014369;28;45488;-80
2023/05/17 08:28:08;;;;;;;;;7.67;5.00;;;;;16.38;57.75;-6934.34;5009898;28;45637;-81
2023/05/17 08:30:33;;;;;;;;;5.33;3.33;;;;;16.53;57.34;-6600.09;4996193;28;47438;-81
2023/05/17 08:32:59;;;;;;;;;2.67;2.67;;;;;16.63;57.51;-6600.63;5006010;28;45529;-82
2023/05/17 08:35:25;;;;;;;;;3.67;3.67;;;;;16.55;57.28;-6600.16;5008917;28;45514;-81
2023/05/17 08:37:50;;;;;;;;;2.33;2.00;;;;;16.61;57.11;-6600.50;5016587;28;45555;-81
2023/05/17 08:40:18;;;;;;;;;4.33;3.00;;;;;16.56;56.87;-6265.03;5017350;28;46137;-80
2023/05/17 08:42:45;;;;;;;;;3.00;3.00;;;;;16.69;56.52;-5595.06;5017758;28;45439;-81
2023/05/17 08:45:11;;;;;;;;;3.33;3.33;;;;;16.81;56.52;-5260.09;5016257;28;45593;-81
2023/05/17 08:47:39;;;;;;;;;3.00;3.00;;;;;16.88;56.47;-5595.78;5014867;28;45542;-81
2023/05/17 08:50:06;;;;;;;;;3.00;3.00;;;;;16.90;56.20;-5595.84;5016122;28;45442;-81
2023/05/17 08:52:34;;;;;;;;;2.00;2.00;;;;;17.14;56.26;-5261.16;5006533;28;45357;-82
2023/05/17 08:55:04;;;;;;;;;2.00;2.00;;;;;17.28;56.38;-5932.91;5003949;28;45544;-81
2023/05/17 08:57:32;;;;;;;;;4.00;2.33;;;;;17.35;56.41;-6268.84;5010537;28;45418;-82
2023/05/17 09:00:00;;;;;;;;;29.00;25.33;;;;;17.91;55.41;-6607.44;5007896;28;47239;-80
2023/05/17 09:02:29;;;;;;;;;8.33;7.00;;;;;18.41;54.87;-7282.34;4989615;28;45530;-81
2023/05/17 09:04:56;;;;;;;;;3.00;3.00;;;;;19.04;54.02;-6949.91;5015197;28;45343;-81
2023/05/17 09:07:21;;;;;;;;;2.33;2.33;;;;;19.93;52.76;-7628.88;5015504;28;45439;-81
2023/05/17 09:09:51;;;;;;;;;3.33;2.00;;;;;20.35;52.34;-7631.75;5009279;28;46109;-81
2023/05/17 09:12:17;;;;;;;;;2.33;2.00;;;;;21.36;50.63;-6287.75;5016526;28;45529;-81
2023/05/17 09:14:42;;;;;;;;;3.67;3.00;;;;;22.13;49.67;-5953.09;5017581;28;45537;-83
2023/05/17 09:17:19;;;;;;;;;2.00;2.00;;;;;22.80;47.75;-1551.69;5011053;28;45500;-83
2023/05/17 09:19:50;;;;;;;;;3.67;2.00;;;;;23.87;46.43;2188.34;5016481;28;45503;-81
2023/05/17 09:22:20;;;;;;;;;2.33;2.33;;;;;24.22;45.32;9680.25;5003047;28;45497;-81
2023/05/17 09:24:45;;;;;;;;;2.00;2.00;;;;;25.40;44.56;10387.50;5007740;28;45548;-82
2023/05/17 09:27:17;;;;;;;;;4.00;3.00;;;;;25.69;43.62;17915.97;5014789;28;45692;-82
2023/05/17 09:29:46;;;;;;;;;4.00;3.00;;;;;26.60;41.96;30605.97;5006291;28;47199;-81
2023/05/17 09:32:15;;;;;;;;;4.33;3.00;;;;;27.12;40.71;40702.13;5015884;28;46008;-81
2023/05/17 09:34:42;;;;;;;;;2.67;2.67;;;;;27.60;40.53;46807.38;4992533;28;45589;-81
2023/05/17 09:37:15;;;;;;;;;2.00;2.00;;;;;27.93;39.59;53077.28;4988563;28;45590;-81
2023/05/17 09:39:43;;;;;;;;;2.75;1.00;;;;;28.09;37.27;66652.38;5002714;28;46709;-80
2023/05/17 09:42:12;;;;;;;;;3.25;1.50;;;;;28.67;37.03;68624.69;5015157;28;45490;-81
2023/05/17 09:45:22;;;;;;;;;2.50;1.50;;;;;28.94;35.78;69973.06;5012313;28;45652;-81
2023/05/17 09:47:51;;;;;;;;;4.25;2.00;;;;;28.60;36.38;71918.84;5012460;28;46369;-81
2023/05/17 09:50:45;;;;;;;;;2.00;2.00;;;;;29.40;36.57;72295.66;5007942;28;47442;-81
2023/05/17 09:53:28;;;;;;;;;2.00;2.00;;;;;29.55;36.28;72796.34;5010913;28;45617;-81
2023/05/17 09:55:58;;;;;;;;;1.25;1.25;;;;;29.60;35.28;73490.09;5014046;28;45399;-82
2023/05/17 09:58:30;;;;;;;;;1.75;1.75;;;;;29.66;34.91;74057.06;5016035;28;45511;-81
2023/05/17 10:00:59;;;;;;;;;1.50;1.50;;;;;29.81;34.18;74244.03;4977794;28;45562;-82
2023/05/17 10:03:34;;;;;;;;;2.00;2.00;;;;;29.82;34.64;74264.38;4968236;28;45651;-81
2023/05/17 10:06:04;;;;;;;;;2.00;2.00;;;;;29.71;34.04;74169.19;5016938;28;45459;-82
2023/05/17 10:08:30;;;;;;;;;2.00;2.00;;;;;30.20;33.76;74070.88;5006049;28;45313;-81
2023/05/17 10:11:00;;;;;;;;;1.00;1.00;;;;;30.36;33.99;74585.06;4996708;28;47546;-81
2023/05/17 10:13:32;;;;;;;;;2.00;2.00;;;;;30.71;32.13;74186.03;5008804;28;45490;-82
2023/05/17 10:15:59;;;;;;;;;1.00;1.00;;;;;30.57;32.20;74179.91;5015667;28;45426;-82
2023/05/17 10:18:26;;;;;;;;;2.00;2.00;;;;;30.77;31.90;74108.88;5003070;28;45626;-82
2023/05/17 10:20:52;;;;;;;;;1.25;1.25;;;;;30.88;30.45;73592.34;4997941;28;46194;-82
2023/05/17 10:23:19;;;;;;;;;2.00;2.00;;;;;31.50;29.43;73177.81;5016483;28;45476;-81
2023/05/17 10:25:45;;;;;;;;;1.00;1.00;;;;;31.22;29.50;72995.81;5010211;28;45679;-81
2023/05/17 10:28:16;;;;;;;;;1.00;1.00;;;;;31.12;29.68;72997.66;5019086;28;45562;-81
2023/05/17 10:30:42;;;;;;;;;2.00;2.00;;;;;31.42;29.51;72848.38;5010801;28;45516;-81
2023/05/17 10:33:09;;;;;;;;;1.25;1.25;;;;;31.83;29.38;72624.28;4996374;28;45514;-81
2023/05/17 10:35:36;;;;;;;;;0.00;0.00;;;;;31.98;29.42;72595.72;4994039;28;45422;-82
2023/05/17 10:38:11;;;;;;;;;1.00;1.00;;;;;32.18;28.73;72278.09;4966643;28;45405;-81
2023/05/17 10:40:38;;;;;;;;;2.25;2.00;;;;;32.14;28.32;72327.31;5016082;28;46456;-82
2023/05/17 10:43:06;;;;;;;;;2.00;2.00;;;;;32.68;28.78;72279.69;4992575;28;45526;-82
2023/05/17 10:45:35;;;;;;;;;2.00;0.75;;;;;32.06;27.98;71865.69;5016207;28;45830;-82
2023/05/17 10:48:04;;;;;;;;;1.50;1.00;;;;;33.12;27.16;71757.34;4936883;28;45423;-82
2023/05/17 10:50:31;;;;;;;;;2.75;2.00;;;;;32.74;27.26;71514.78;4934934;28;46671;-82
2023/05/17 10:52:58;;;;;;;;;1.00;1.00;;;;;33.11;26.29;70903.34;4935000;28;45535;-82
2023/05/17 10:55:38;;;;;;;;;1.50;1.50;;;;;32.89;25.43;70707.41;4968826;28;45496;-82
2023/05/17 10:58:14;;;;;;;;;0.25;0.25;;;;;33.79;26.36;70791.59;5016540;28;45395;-82
2023/05/17 11:00:42;;;;;;;;;1.00;1.00;;;;;33.93;25.79;70738.66;5011939;28;46998;-83
2023/05/17 11:03:29;;;;;;;;;1.00;1.00;;;;;33.78;25.93;70734.91;4977015;28;45531;-83
2023/05/17 11:06:17;;;;;;;;;2.00;1.00;;;;;32.84;24.49;70007.50;4987528;28;45449;-83
2023/05/17 11:09:17;;;;;;;;;1.00;1.00;;;;;32.47;25.78;70260.84;4982461;28;45474;-82
2023/05/17 11:12:07;;;;;;;;;2.00;1.00;;;;;31.77;25.71;70195.16;4977161;28;47279;-82
2023/05/17 11:14:45;;;;;;;;;2.00;1.00;;;;;31.07;27.17;70239.41;4979000;28;45568;-82
2023/05/17 11:17:20;;;;;;;;;0.00;0.00;;;;;30.38;27.26;70242.44;4977012;28;45558;-82
2023/05/17 11:19:55;;;;;;;;;1.50;1.50;;;;;29.24;28.20;70242.72;4974909;28;45679;-81
2023/05/17 11:22:25;;;;;;;;;2.50;0.75;;;;;28.45;28.56;70139.34;4975989;28;45445;-83
2023/05/17 11:24:52;;;;;;;;;0.75;0.75;;;;;27.85;29.05;70213.19;4976985;28;45556;-83
2023/05/17 11:27:19;;;;;;;;;1.00;1.00;;;;;27.86;29.14;70228.00;4981211;28;45629;-84
2023/05/17 11:29:49;;;;;;;;;0.25;0.25;;;;;26.73;29.59;70054.41;4976206;28;45647;-83
2023/05/17 11:32:14;;;;;;;;;2.00;1.00;;;;;27.01;29.91;70155.31;4975958;28;45572;-83
2023/05/17 11:34:40;;;;;;;;;1.00;1.00;;;;;26.44;30.50;70186.25;4977314;28;45640;-83
2023/05/17 11:37:10;;;;;;;;;3.00;1.50;;;;;26.69;30.73;70182.59;4977349;28;45473;-84
2023/05/17 11:39:36;;;;;;;;;1.00;1.00;;;;;26.58;30.69;70155.81;4977491;28;45436;-83
2023/05/17 11:42:01;;;;;;;;;0.50;0.25;;;;;26.56;30.49;70172.38;4979254;28;45504;-83
2023/05/17 11:44:32;;;;;;;;;3.00;2.25;;;;;26.97;30.57;70318.25;4976425;28;45520;-83
2023/05/17 11:47:10;;;;;;;;;1.00;1.00;;;;;27.29;30.33;70331.78;4977469;28;45379;-83
2023/05/17 11:49:37;;;;;;;;;1.00;1.00;;;;;27.60;30.29;70386.94;4976148;28;45398;-84
2023/05/17 11:52:07;;;;;;;;;0.50;0.50;;;;;27.58;30.70;70369.44;4989049;28;47199;-83
2023/05/17 11:54:33;;;;;;;;;1.00;1.00;;;;;27.97;30.08;70428.84;4995155;28;45391;-84
2023/05/17 11:56:59;;;;;;;;;1.00;1.00;;;;;28.12;30.12;70416.44;4995687;28;45449;-83
2023/05/17 11:59:24;;;;;;;;;2.00;2.00;;;;;27.46;29.79;70363.13;4995167;28;45543;-84
2023/05/17 12:01:51;;;;;;;;;0.00;0.00;;;;;27.98;30.00;70356.66;4987437;28;47278;-83
2023/05/17 12:04:26;;;;;;;;;1.75;0.00;;;;;27.90;30.10;70414.38;4998238;28;45528;-83
2023/05/17 12:06:53;;;;;;;;;0.25;0.25;;;;;27.81;30.42;70427.97;5015036;28;45483;-83
2023/05/17 12:09:20;;;;;;;;;1.00;1.00;;;;;27.78;30.69;70444.59;5015048;28;45455;-83
2023/05/17 12:11:46;;;;;;;;;0.25;0.25;;;;;27.62;29.62;70375.78;5016623;28;47112;-83
2023/05/17 12:14:16;;;;;;;;;1.00;1.00;;;;;27.46;30.24;70291.88;5015958;28;45486;-83
2023/05/17 12:16:43;;;;;;;;;1.00;1.00;;;;;27.30;30.45;70320.00;5016885;28;45474;-83
2023/05/17 12:19:20;;;;;;;;;0.00;0.00;;;;;27.04;30.62;70354.44;5016467;28;45439;-83
2023/05/17 12:21:46;;;;;;;;;1.00;0.00;;;;;26.78;31.10;70290.53;5017639;28;46221;-83
2023/05/17 12:24:12;;;;;;;;;0.00;0.00;;;;;26.72;31.22;70289.34;5017877;28;45475;-83
2023/05/17 12:26:44;;;;;;;;;1.00;1.00;;;;;26.42;31.71;70278.78;5018631;28;45617;-83
2023/05/17 12:29:12;;;;;;;;;0.25;0.00;;;;;26.28;31.57;70237.50;5018148;28;45460;-84
2023/05/17 12:31:45;;;;;;;;;1.00;0.50;;;;;26.22;31.62;70290.56;5016296;28;46327;-84
2023/05/17 12:34:12;;;;;;;;;1.00;1.00;;;;;25.95;31.47;70241.75;5017412;28;45496;-83
2023/05/17 12:36:39;;;;;;;;;2.00;0.00;;;;;25.70;31.94;70226.97;5017714;28;45499;-84
2023/05/17 12:39:08;;;;;;;;;0.75;0.75;;;;;25.72;32.43;70239.63;5017762;28;45547;-83
2023/05/17 12:41:34;;;;;;;;;1.75;1.75;;;;;25.57;32.83;70194.47;5009677;28;46329;-84
2023/05/17 12:44:00;;;;;;;;;3.00;2.00;;;;;25.43;32.55;70237.78;4999734;28;45424;-83
2023/05/17 12:46:29;;;;;;;;;1.00;1.00;;;;;25.18;32.90;70235.94;5034061;23;45454;-83
2023/05/17 12:48:54;;;;;;;;;0.75;0.75;;;;;24.66;33.09;70220.44;5038472;28;45491;-84
2023/05/17 12:51:23;;;;;;;;;2.00;0.00;;;;;24.99;32.91;70245.50;5035588;28;59464;-84
2023/05/17 12:53:50;;;;;;;;;1.00;1.00;;;;;25.15;33.10;70231.69;5020125;28;45508;-84
2023/05/17 12:56:36;;;;;;;;;1.00;1.00;;;;;24.93;33.65;70165.78;5029070;28;45442;-83
2023/05/17 12:59:13;;;;;;;;;0.00;0.00;;;;;24.94;33.21;70236.75;5031270;28;45727;-84
2023/05/17 13:01:54;;;;;;;;;1.00;1.00;;;;;24.75;33.32;70185.31;5037220;28;46269;-84
2023/05/17 13:04:26;;;;;;;;;1.00;1.00;;;;;24.78;33.28;70188.91;5037464;28;45546;-84
2023/05/17 13:06:57;;;;;;;;;0.00;0.00;;;;;24.74;33.49;70161.84;5037370;28;45526;-83
2023/05/17 13:09:24;;;;;;;;;1.25;0.50;;;;;24.70;33.30;70163.06;5034315;28;45393;-83
2023/05/17 13:11:54;;;;;;;;;1.00;1.00;;;;;24.74;33.21;70148.91;5036817;28;46083;-84
2023/05/17 13:14:37;;;;;;;;;2.75;1.00;;;;;24.70;33.49;70200.94;5032249;28;45574;-85
2023/05/17 13:17:05;;;;;;;;;1.00;1.00;;;;;24.57;33.97;70198.78;5035737;28;45490;-86
2023/05/17 13:19:30;;;;;;;;;1.00;1.00;;;;;24.48;34.04;70248.03;5015779;28;45562;-85
2023/05/17 13:21:56;;;;;;;;;0.50;0.50;;;;;24.44;34.23;70194.50;5036033;28;46144;-85
2023/05/17 13:24:21;;;;;;;;;1.00;1.00;;;;;24.36;34.28;70168.63;5033594;28;45396;-84
2023/05/17 13:26:46;;;;;;;;;0.25;0.25;;;;;24.22;34.31;70141.56;5035421;28;45933;-84
2023/05/17 13:29:12;;;;;;;;;0.75;0.75;;;;;24.19;34.41;70149.34;5025223;28;45427;-84
2023/05/17 13:31:46;;;;;;;;;1.00;0.00;;;;;23.93;34.76;70158.56;5027880;28;59180;-83
2023/05/17 13:34:12;;;;;;;;;0.25;0.25;;;;;24.09;34.88;70148.13;5035162;28;45504;-83
2023/05/17 13:36:40;;;;;;;;;0.00;0.00;;;;;23.97;34.04;70082.31;5268025;22;45466;-83
2023/05/17 13:39:05;;;;;;;;;0.00;0.00;;;;;24.04;34.33;70090.16;4956822;28;45392;-83
2023/05/17 13:41:30;;;;;;;;;0.00;0.00;;;;;24.03;34.34;70173.31;4957251;28;46018;-81
2023/05/17 13:43:59;;;;;;;;;0.00;0.00;;;;;23.92;34.30;70117.44;4956733;28;45444;-84
2023/05/17 13:46:24;;;;;;;;;1.25;1.00;;;;;24.04;34.48;70112.38;4958514;28;45606;-82
2023/05/17 13:48:49;;;;;;;;;0.25;0.25;;;;;24.05;34.96;70210.88;4955485;28;45373;-81
2023/05/17 13:51:18;;;;;;;;;1.00;1.00;;;;;23.89;34.37;70140.25;4956664;28;46041;-83
2023/05/17 13:53:43;;;;;;;;;0.25;0.25;;;;;24.06;34.17;70185.03;4955202;28;45435;-83
2023/05/17 13:56:08;;;;;;;;;1.00;1.00;;;;;24.00;34.55;70169.72;4955582;28;45444;-82
2023/05/17 13:58:34;;;;;;;;;0.25;0.25;;;;;23.79;34.59;70132.09;4957264;28;45438;-81
2023/05/17 14:00:59;;;;;;;;;0.00;0.00;;;;;23.78;34.75;70143.78;4955777;28;51431;-83
2023/05/17 14:03:25;;;;;;;;;1.00;0.00;;;;;23.83;34.79;70171.41;4952809;28;45481;-82
2023/05/17 14:05:51;;;;;;;;;0.25;0.25;;;;;23.81;34.56;70133.88;4955225;28;45612;-82
2023/05/17 14:08:17;;;;;;;;;4.00;2.75;;;;;23.76;34.99;70138.66;4968476;28;45941;-81
2023/05/17 14:10:43;;;;;;;;;1.00;1.00;;;;;23.55;34.84;70097.75;4956372;28;45489;-81
2023/05/17 14:13:10;;;;;;;;;0.00;0.00;;;;;23.36;35.38;70146.25;4956683;28;45760;-82
2023/05/17 14:15:38;;;;;;;;;2.00;1.00;;;;;23.79;35.28;70161.81;4956802;28;45455;-81
2023/05/17 14:18:04;;;;;;;;;0.25;0.25;;;;;23.72;35.30;70156.06;4957341;28;45493;-80
2023/05/17 14:20:30;;;;;;;;;0.00;0.00;;;;;23.77;35.29;70135.09;4957209;28;46082;-82
2023/05/17 14:22:55;;;;;;;;;0.75;0.75;;;;;23.62;35.24;70165.59;4961369;28;45505;-83
2023/05/17 14:25:21;;;;;;;;;2.00;0.00;;;;;23.72;35.14;70079.81;4956136;28;45450;-83
2023/05/17 14:27:46;;;;;;;;;0.00;0.00;;;;;23.38;35.04;70099.47;4939708;28;45673;-83
2023/05/17 14:30:13;;;;;;;;;1.00;1.00;;;;;23.59;35.80;70130.16;4956502;28;45971;-84
2023/05/17 14:32:38;;;;;;;;;1.33;1.00;;;;;23.44;35.30;70108.81;4951218;28;45506;-83
2023/05/17 14:35:08;;;;;;;;;1.00;1.00;;;;;23.47;35.66;70142.13;4955808;28;45498;-84
2023/05/17 14:37:34;;;;;;;;;0.33;0.33;;;;;23.33;36.05;70106.94;4956032;28;45521;-83
2023/05/17 14:40:00;;;;;;;;;1.00;1.00;;;;;23.18;36.30;70095.47;4956332;28;47553;-83
2023/05/17 14:42:25;;;;;;;;;1.00;1.00;;;;;23.25;35.69;70081.09;4951804;28;45385;-84
2023/05/17 14:44:51;;;;;;;;;1.00;1.00;;;;;22.99;36.04;70094.16;4957478;28;45534;-83
2023/05/17 14:47:17;;;;;;;;;1.67;1.67;;;;;23.11;35.89;70143.13;4958143;28;45662;-84
2023/05/17 14:49:42;;;;;;;;;1.33;1.33;;;;;23.13;36.03;70129.31;4969808;28;46136;-83
2023/05/17 14:52:08;;;;;;;;;1.00;1.00;;;;;23.06;36.24;70075.63;4964365;28;45508;-84
2023/05/17 14:54:36;;;;;;;;;2.00;0.50;;;;;22.88;36.35;70072.81;4953047;28;45478;-83
2023/05/17 15:07:38;;;;;;;;;1.00;1.00;;;;;22.42;36.53;70040.75;6343216;22;1319952;-86
2023/05/17 15:10:04;;;;;;;;;1.00;1.00;;;;;22.76;37.25;70199.19;6407623;22;45341;-84
2023/05/17 15:12:31;;;;;;;;;3.00;2.00;;;;;22.51;36.88;70032.72;6402394;22;45375;-83
2023/05/17 15:14:56;;;;;;;;;0.67;0.67;;;;;22.58;37.01;70113.34;6407437;22;45331;-84
2023/05/17 15:17:22;;;;;;;;;3.00;1.50;;;;;22.81;37.36;70091.94;6406124;22;45550;-84
2023/05/17 15:19:50;;;;;;;;;1.25;1.25;;;;;22.24;37.33;70111.31;6405971;22;45487;-84
2023/05/17 15:22:16;;;;;;;;;1.00;1.00;;;;;22.70;37.19;70108.94;6406664;22;45448;-83
2023/05/17 15:24:42;;;;;;;;;1.50;1.50;;;;;22.82;37.12;70122.22;6407783;22;45445;-84
2023/05/17 15:27:11;;;;;;;;;1.00;1.00;;;;;22.69;37.23;70113.13;6406875;22;45381;-82
2023/05/17 15:29:39;;;;;;;;;2.00;1.00;;;;;22.60;37.32;70082.81;6406421;22;45417;-85
2023/05/17 15:32:05;;;;;;;;;1.00;1.00;;;;;22.64;37.47;70138.84;6406714;22;45456;-83
2023/05/17 15:34:31;;;;;;;;;1.00;1.00;;;;;22.62;38.26;70134.38;6378406;22;45485;-83
2023/05/17 15:36:57;;;;;;;;;2.00;2.00;;;;;22.60;38.18;70118.47;6406215;22;46108;-82
2023/05/17 15:39:22;;;;;;;;;1.00;1.00;;;;;22.54;38.11;70144.16;6406808;22;45346;-83
2023/05/17 15:41:48;;;;;;;;;1.00;1.00;;;;;22.51;38.18;70156.13;6407036;22;45659;-84
2023/05/17 15:44:13;;;;;;;;;2.00;2.00;;;;;22.39;37.87;70133.59;6407712;22;45317;-84
2023/05/17 15:46:38;;;;;;;;;1.00;1.00;;;;;22.39;38.55;70093.75;6377715;22;47246;-84
2023/05/17 15:49:04;;;;;;;;;1.33;1.33;;;;;22.37;38.57;70090.72;6406517;22;45226;-84
2023/05/17 15:51:29;;;;;;;;;3.00;3.00;;;;;22.38;37.99;70089.25;6377738;22;45361;-84
2023/05/17 15:53:55;;;;;;;;;1.00;1.00;;;;;22.34;38.80;70074.84;6406810;22;45503;-83
2023/05/17 15:56:21;;;;;;;;;3.00;1.00;;;;;22.18;38.24;70081.88;6406200;22;49805;-84
2023/05/17 15:58:47;;;;;;;;;1.33;1.33;;;;;22.21;38.39;70037.63;6406003;22;45393;-85
2023/05/17 16:01:13;;;;;;;;;3.33;2.00;;;;;22.33;38.60;70105.97;6406785;22;45334;-84
2023/05/17 16:03:38;;;;;;;;;5.00;2.00;;;;;22.36;38.59;70046.41;6406082;22;45420;-84
2023/05/17 16:06:04;;;;;;;;;1.00;1.00;;;;;22.35;38.24;70148.22;6406444;22;46382;-84
2023/05/17 16:08:30;;;;;;;;;2.00;2.00;;;;;22.17;38.05;70127.06;6399112;22;45418;-85
2023/05/17 16:10:55;;;;;;;;;1.00;1.00;;;;;22.18;38.29;70046.84;6399121;22;45306;-85
2023/05/17 16:13:24;;;;;;;;;2.00;1.33;;;;;21.91;38.08;70023.59;6399944;22;45511;-86
2023/05/17 16:15:50;;;;;;;;;2.33;2.33;;;;;22.30;37.93;70012.84;6399200;22;46622;-85
2023/05/17 16:18:15;;;;;;;;;4.67;2.00;;;;;22.13;38.12;70046.81;6399607;22;45653;-85
2023/05/17 16:20:42;;;;;;;;;3.00;1.00;;;;;22.25;38.00;70122.69;6399413;22;45554;-85
2023/05/17 16:23:08;;;;;;;;;2.00;2.00;;;;;22.07;38.36;70069.81;6371257;22;45515;-84
2023/05/17 16:25:34;;;;;;;;;2.00;1.00;;;;;21.66;38.01;69953.72;6399840;22;46075;-84
2023/05/17 16:28:00;;;;;;;;;2.00;2.00;;;;;21.75;38.81;69961.84;6399677;22;45400;-85
2023/05/17 16:30:25;;;;;;;;;2.67;2.00;;;;;21.40;38.59;69926.31;6400150;22;45557;-86
2023/05/17 16:32:51;;;;;;;;;1.00;1.00;;;;;21.62;38.97;70048.50;6399065;22;45646;-85
2023/05/17 16:35:20;;;;;;;;;2.00;1.67;;;;;21.48;38.97;69927.84;6398588;22;45617;-84
2023/05/17 16:37:46;;;;;;;;;3.00;2.00;;;;;21.73;39.33;70009.97;6398315;22;45461;-84
2023/05/17 16:40:11;;;;;;;;;2.67;2.00;;;;;21.92;39.78;70092.16;6399428;22;45787;-84
2023/05/17 16:42:37;;;;;;;;;1.00;1.00;;;;;21.89;39.88;70010.41;6371632;22;45579;-84
2023/05/17 16:45:02;;;;;;;;;1.67;1.67;;;;;21.87;40.04;70011.31;6399890;22;46904;-83